Time;durP1;ratioP1;P1;durP2;ratioP2;P2;SDS_P1;SDS_P2;PMS_P1;PMS_P2;Temp;Humidity;BMP_temperature;BMP_pressure;BME280_temperature;BME280_humidity;BME280_pressure;Samples;Min_cycle;Max_cycle;Signal;HPM_P1;HPM_P2
2021/11/18 00:00:54;;;;;;;59.40;19.40;;;6.60;99.90;;;7.26;100.00;101532.56;5053704;28;20121;-84
2021/11/18 00:03:23;;;;;;;52.03;19.08;;;6.60;99.90;;;7.26;100.00;101525.06;5054812;28;20033;-85
2021/11/18 00:05:51;;;;;;;41.50;17.80;;;6.50;99.90;;;7.23;100.00;101522.09;5054799;28;20025;-85
2021/11/18 00:08:20;;;;;;;51.28;17.60;;;6.60;99.90;;;7.26;100.00;101533.41;5054249;28;20102;-83
2021/11/18 00:10:59;;;;;;;41.53;18.02;;;6.50;99.90;;;7.18;100.00;101530.56;5052841;28;20025;-84
2021/11/18 00:13:35;;;;;;;42.83;17.27;;;6.50;99.90;;;7.17;100.00;101524.16;5052737;28;20029;-85
2021/11/18 00:16:03;;;;;;;46.70;18.10;;;6.50;99.90;;;7.26;100.00;101532.56;5053872;28;20029;-86
2021/11/18 00:18:34;;;;;;;45.80;18.42;;;6.50;99.90;;;7.22;100.00;101542.69;5054325;28;20037;-82
2021/11/18 00:21:13;;;;;;;39.80;17.23;;;6.60;99.90;;;7.18;100.00;101536.94;5054819;28;20036;-85
2021/11/18 00:23:51;;;;;;;40.53;17.17;;;6.50;99.90;;;7.09;100.00;101521.31;5053078;28;20029;-84
2021/11/18 00:26:20;;;;;;;45.85;18.10;;;6.50;99.90;;;7.04;100.00;101525.03;5053045;28;20037;-82
2021/11/18 00:28:47;;;;;;;54.90;18.05;;;6.50;99.90;;;7.15;100.00;101540.34;5053528;28;20420;-85
2021/11/18 00:31:19;;;;;;;37.78;17.80;;;6.50;99.90;;;7.14;100.00;101535.09;5052275;28;20120;-85
2021/11/18 00:33:47;;;;;;;52.88;17.77;;;6.50;99.90;;;7.19;100.00;101543.31;5054257;28;20109;-85
2021/11/18 00:36:15;;;;;;;41.72;17.48;;;6.50;99.90;;;7.19;100.00;101527.44;5056559;28;20032;-82
2021/11/18 00:38:43;;;;;;;46.30;18.42;;;6.50;99.90;;;7.15;100.00;101537.56;5053727;28;20036;-85
2021/11/18 00:41:10;;;;;;;39.83;16.58;;;6.50;99.90;;;7.19;100.00;101538.56;5054612;28;20037;-85
2021/11/18 00:43:36;;;;;;;46.63;17.02;;;6.50;99.90;;;7.20;100.00;101542.16;5054167;28;20029;-81
2021/11/18 00:46:02;;;;;;;45.50;19.20;;;6.50;99.90;;;7.19;100.00;101532.19;5055381;28;20507;-84
2021/11/18 00:48:29;;;;;;;38.70;17.25;;;6.50;99.90;;;7.19;100.00;101533.00;5057603;28;20119;-83
2021/11/18 00:51:12;;;;;;;55.63;18.58;;;6.50;99.90;;;7.16;100.00;101530.84;5057413;28;20036;-85
2021/11/18 00:53:57;;;;;;;40.60;19.05;;;6.50;99.90;;;7.09;100.00;101544.38;5058365;28;20088;-85
2021/11/18 00:56:25;;;;;;;41.33;18.27;;;6.50;99.90;;;7.19;100.00;101548.88;5059019;28;20293;-82
2021/11/18 00:58:55;;;;;;;42.83;17.63;;;6.50;99.90;;;7.16;100.00;101561.41;5056829;28;20029;-84
2021/11/18 01:01:28;;;;;;;43.90;18.83;;;6.40;99.90;;;7.13;100.00;101572.31;5056542;28;20120;-84
2021/11/18 01:03:57;;;;;;;42.60;18.58;;;6.40;99.90;;;7.08;100.00;101566.91;5058125;28;20112;-80
2021/11/18 01:06:23;;;;;;;46.08;18.08;;;6.40;99.90;;;7.01;100.00;101572.06;5057036;28;20408;-83
2021/11/18 01:08:50;;;;;;;45.38;19.63;;;6.30;99.90;;;6.93;100.00;101567.25;5053470;28;20025;-87
2021/11/18 01:11:27;;;;;;;39.97;17.92;;;6.30;99.90;;;6.92;100.00;101562.81;5036266;28;20037;-86
2021/11/18 01:13:54;;;;;;;48.28;19.75;;;6.30;99.90;;;6.88;100.00;101570.94;5038118;28;20498;-85
2021/11/18 01:16:27;;;;;;;49.70;20.15;;;6.30;99.90;;;6.88;100.00;101570.94;5036708;28;20032;-86
2021/11/18 01:18:55;;;;;;;47.78;20.88;;;6.20;99.90;;;6.88;100.00;101566.22;5036698;28;20188;-86
2021/11/18 01:21:23;;;;;;;49.00;21.63;;;6.20;99.90;;;6.92;100.00;101573.94;5036759;28;20128;-82
2021/11/18 01:23:51;;;;;;;42.05;18.40;;;6.20;99.90;;;6.85;100.00;101577.94;5054455;28;20045;-84
2021/11/18 01:26:21;;;;;;;53.28;21.70;;;6.20;99.90;;;6.85;100.00;101591.00;5057147;28;20029;-83
2021/11/18 01:28:50;;;;;;;58.60;21.67;;;6.20;99.90;;;6.83;100.00;101577.47;5038321;28;20034;-83
2021/11/18 01:31:18;;;;;;;55.10;23.23;;;6.20;99.90;;;6.89;100.00;101576.22;5036886;28;20052;-84
2021/11/18 01:33:46;;;;;;;53.80;21.42;;;6.30;99.90;;;6.87;100.00;101580.44;5053220;28;20037;-84
2021/11/18 01:36:14;;;;;;;53.28;23.40;;;6.30;99.90;;;6.97;100.00;101580.19;5038043;28;20029;-86
2021/11/18 01:38:40;;;;;;;53.40;21.98;;;6.30;99.90;;;6.93;100.00;101584.75;5053104;28;20529;-87
2021/11/18 01:41:23;;;;;;;56.47;22.08;;;6.20;99.90;;;6.89;100.00;101583.72;5036629;28;20057;-86
2021/11/18 01:44:04;;;;;;;51.53;21.77;;;6.30;99.90;;;6.86;100.00;101584.34;5052868;28;20033;-85
2021/11/18 01:46:36;;;;;;;58.70;23.40;;;6.30;99.90;;;6.92;100.00;101577.53;5052240;28;20036;-82
2021/11/18 01:49:08;;;;;;;46.80;22.33;;;6.30;99.90;;;6.92;100.00;101596.16;5035195;28;20034;-86
2021/11/18 01:51:44;;;;;;;50.65;21.85;;;6.30;99.90;;;6.85;100.00;101582.69;5051782;28;20029;-86
2021/11/18 01:54:15;;;;;;;57.35;24.65;;;6.20;99.90;;;6.84;100.00;101581.84;5055864;28;20047;-80
2021/11/18 01:56:43;;;;;;;52.13;22.92;;;6.20;99.90;;;6.94;100.00;101582.75;5053199;28;20038;-85
2021/11/18 01:59:23;;;;;;;61.10;23.67;;;6.30;99.90;;;6.96;100.00;101581.34;5050574;28;20068;-84
2021/11/18 02:01:54;;;;;;;57.10;23.15;;;6.30;99.90;;;6.92;100.00;101585.03;5035848;28;20026;-85
2021/11/18 02:04:27;;;;;;;49.47;22.25;;;6.30;99.90;;;6.94;100.00;101586.38;5036168;28;20156;-84
2021/11/18 02:07:08;;;;;;;55.33;24.23;;;6.30;99.90;;;6.91;100.00;101581.44;5051005;28;20116;-83
2021/11/18 02:09:45;;;;;;;59.15;23.25;;;6.30;99.90;;;6.90;100.00;101594.50;5061850;28;20036;-85
2021/11/18 02:12:25;;;;;;;50.00;22.20;;;6.30;99.90;;;6.93;100.00;101589.47;5054528;28;20155;-86
2021/11/18 02:14:54;;;;;;;54.38;23.65;;;6.30;99.90;;;6.97;100.00;101594.06;5055986;28;20032;-88
2021/11/18 02:17:27;;;;;;;46.05;20.35;;;6.30;99.90;;;6.97;100.00;101599.63;5072396;28;20025;-86
2021/11/18 02:20:05;;;;;;;51.67;23.58;;;6.30;99.90;;;6.90;100.00;101610.38;5056046;28;20073;-83
2021/11/18 02:22:32;;;;;;;48.50;23.33;;;6.30;99.90;;;6.89;100.00;101611.47;5054330;28;20393;-83
2021/11/18 02:25:09;;;;;;;56.78;22.20;;;6.20;99.90;;;6.89;100.00;101608.72;5054360;28;20060;-86
2021/11/18 02:27:35;;;;;;;49.38;21.83;;;6.20;99.90;;;6.85;100.00;101621.56;5053791;28;20039;-83
2021/11/18 02:30:01;;;;;;;59.92;23.67;;;6.20;99.90;;;6.80;100.00;101624.47;5055207;28;20494;-85
2021/11/18 02:32:34;;;;;;;57.42;21.83;;;6.30;99.90;;;6.76;100.00;101624.25;5055023;28;20060;-84
2021/11/18 02:35:29;;;;;;;55.10;23.42;;;6.20;99.90;;;6.86;100.00;101626.81;5053955;28;20029;-84
2021/11/18 02:37:57;;;;;;;54.38;22.58;;;6.20;99.90;;;6.94;100.00;101632.75;5061769;28;20052;-81
2021/11/18 02:40:27;;;;;;;57.72;23.88;;;6.30;99.90;;;6.85;100.00;101627.94;5060121;28;20060;-81
2021/11/18 02:42:59;;;;;;;51.13;21.70;;;6.20;99.90;;;6.89;100.00;101633.69;5058157;28;20033;-82
2021/11/18 02:45:32;;;;;;;56.03;21.55;;;6.20;99.90;;;6.87;100.00;101624.88;5058979;28;20025;-85
2021/11/18 02:47:59;;;;;;;50.60;21.67;;;6.20;99.90;;;6.86;100.00;101626.81;5057867;28;20025;-84
2021/11/18 02:50:36;;;;;;;54.92;23.42;;;6.30;99.90;;;6.90;100.00;101624.25;5057866;28;20029;-87
2021/11/18 02:53:05;;;;;;;57.25;21.45;;;6.20;99.90;;;6.95;100.00;101607.47;5057519;28;20511;-83
2021/11/18 02:55:42;;;;;;;54.10;22.17;;;6.30;99.90;;;7.00;100.00;101612.91;5059410;28;20119;-84
2021/11/18 02:58:11;;;;;;;53.03;22.25;;;6.30;99.90;;;6.97;100.00;101609.94;5057712;28;20040;-83
2021/11/18 03:01:02;;;;;;;60.45;24.25;;;6.30;99.90;;;6.87;100.00;101616.53;5058148;28;20033;-83
2021/11/18 03:03:28;;;;;;;48.70;21.38;;;6.30;99.90;;;6.96;100.00;101611.91;5074987;28;20104;-85
2021/11/18 03:05:58;;;;;;;52.10;23.88;;;6.30;99.90;;;7.00;100.00;101615.66;5058170;28;20068;-82
2021/11/18 03:08:26;;;;;;;54.55;22.77;;;6.30;99.90;;;7.00;100.00;101612.09;5057932;28;20029;-85
2021/11/18 03:10:56;;;;;;;55.25;21.63;;;6.40;99.90;;;6.99;100.00;101605.72;5038351;28;20660;-84
2021/11/18 03:13:26;;;;;;;47.95;21.80;;;6.40;99.90;;;6.92;100.00;101604.47;5039037;28;20028;-86
2021/11/18 03:15:53;;;;;;;54.80;22.35;;;6.40;99.90;;;6.99;100.00;101613.22;5037529;28;20025;-80
2021/11/18 03:18:23;;;;;;;54.17;22.13;;;6.40;99.90;;;6.95;100.00;101614.97;5039205;28;20033;-81
2021/11/18 03:20:52;;;;;;;47.83;21.90;;;6.40;99.90;;;6.93;100.00;101606.97;5038259;28;20152;-81
2021/11/18 03:23:20;;;;;;;52.00;21.10;;;6.40;99.90;;;6.90;100.00;101608.38;5036852;28;20057;-87
2021/11/18 03:25:48;;;;;;;50.78;21.98;;;6.40;99.90;;;6.92;100.00;101607.25;5037635;28;20037;-83
2021/11/18 03:28:16;;;;;;;52.88;20.85;;;6.40;99.90;;;6.86;100.00;101604.59;5039225;28;20504;-86
2021/11/18 03:30:46;;;;;;;55.10;20.90;;;6.30;99.90;;;6.98;100.00;101622.69;5037235;28;20227;-87
2021/11/18 03:33:26;;;;;;;48.35;21.08;;;6.30;99.90;;;7.00;100.00;101620.44;5038900;28;20029;-86
2021/11/18 03:35:55;;;;;;;52.70;21.48;;;6.30;99.90;;;6.94;100.00;101618.88;5039528;28;20036;-85
2021/11/18 03:38:25;;;;;;;45.75;21.00;;;6.30;99.90;;;6.90;100.00;101621.47;5040355;28;20030;-86
2021/11/18 03:40:51;;;;;;;48.08;20.70;;;6.30;99.90;;;6.88;100.00;101632.88;5042091;28;20033;-83
2021/11/18 03:43:22;;;;;;;50.67;20.92;;;6.30;99.90;;;6.89;100.00;101633.69;5042275;28;20064;-82
2021/11/18 03:45:50;;;;;;;46.50;20.25;;;6.30;99.90;;;6.88;100.00;101638.44;5041426;28;20030;-81
2021/11/18 03:48:19;;;;;;;51.88;21.40;;;6.20;99.90;;;6.84;100.00;101633.78;5038408;28;20029;-84
2021/11/18 03:50:50;;;;;;;49.33;19.15;;;6.20;99.90;;;6.85;100.00;101632.66;5038115;28;20025;-81
2021/11/18 03:53:17;;;;;;;48.05;20.05;;;6.20;99.90;;;6.84;100.00;101619.91;5039810;28;20025;-81
2021/11/18 03:55:44;;;;;;;53.08;19.63;;;6.20;99.90;;;6.75;100.00;101628.16;5039081;28;20026;-85
2021/11/18 03:58:11;;;;;;;47.55;20.50;;;6.20;99.90;;;6.79;100.00;101629.19;5039599;28;20032;-87
2021/11/18 04:00:39;;;;;;;48.88;20.90;;;6.20;99.90;;;6.78;100.00;101644.19;5054681;28;20127;-83
2021/11/18 04:03:10;;;;;;;49.53;19.27;;;6.10;99.90;;;6.72;100.00;101641.81;5038854;28;20033;-84
2021/11/18 04:05:40;;;;;;;42.53;19.15;;;6.10;99.90;;;6.64;100.00;101651.72;5053304;28;20029;-82
2021/11/18 04:08:08;;;;;;;50.08;21.42;;;6.10;99.90;;;6.68;100.00;101651.88;5053587;28;20040;-83
2021/11/18 04:10:37;;;;;;;53.42;20.45;;;6.10;99.90;;;6.71;100.00;101656.84;5037242;28;20021;-82
2021/11/18 04:13:06;;;;;;;50.28;20.38;;;6.10;99.90;;;6.75;100.00;101655.09;5035671;28;20030;-84
2021/11/18 04:15:33;;;;;;;52.25;20.70;;;6.10;99.90;;;6.70;100.00;101655.19;5053344;28;20452;-82
2021/11/18 04:18:01;;;;;;;58.15;19.60;;;6.10;99.90;;;6.73;100.00;101649.84;5053142;28;20033;-84
2021/11/18 04:20:29;;;;;;;43.83;19.27;;;6.10;99.90;;;6.77;100.00;101656.44;5054086;28;20039;-82
2021/11/18 04:22:57;;;;;;;49.58;19.40;;;6.20;99.90;;;6.72;100.00;101666.81;5037596;28;20511;-82
2021/11/18 04:25:31;;;;;;;49.40;19.63;;;6.00;99.90;;;6.68;100.00;101663.00;5043148;28;20448;-84
2021/11/18 04:27:59;;;;;;;50.15;20.27;;;6.10;99.90;;;6.64;100.00;101656.44;5037104;28;20584;-87
2021/11/18 04:30:42;;;;;;;44.50;19.02;;;6.00;99.90;;;6.57;100.00;101654.06;5038052;28;20049;-85
2021/11/18 04:33:08;;;;;;;53.28;19.52;;;6.00;99.90;;;6.58;100.00;101641.81;5038382;28;20025;-84
2021/11/18 04:35:35;;;;;;;55.42;19.83;;;6.00;99.90;;;6.62;100.00;101639.25;5038640;28;20108;-86
2021/11/18 04:38:01;;;;;;;46.70;19.30;;;6.00;99.90;;;6.66;100.00;101634.72;5040468;28;20033;-84
2021/11/18 04:40:29;;;;;;;51.72;17.95;;;6.10;99.90;;;6.71;100.00;101624.34;5040248;28;20025;-84
2021/11/18 04:42:58;;;;;;;51.40;18.27;;;6.20;99.90;;;6.80;100.00;101633.63;5038387;28;20121;-80
2021/11/18 04:45:24;;;;;;;54.42;18.05;;;6.10;99.90;;;6.78;100.00;101621.16;5053460;28;20035;-85
2021/11/18 04:47:51;;;;;;;48.75;19.02;;;6.10;99.90;;;6.80;100.00;101622.50;5037852;28;20111;-84
2021/11/18 04:50:20;;;;;;;43.45;17.58;;;6.20;99.90;;;6.83;100.00;101633.00;5055024;28;20022;-84
2021/11/18 04:52:50;;;;;;;48.10;18.40;;;6.20;99.90;;;6.82;100.00;101636.06;5054909;28;20034;-78
2021/11/18 04:55:24;;;;;;;50.25;19.00;;;6.20;99.90;;;6.80;100.00;101639.16;5040116;28;20497;-83
2021/11/18 04:57:50;;;;;;;40.17;16.58;;;6.10;99.90;;;6.77;100.00;101631.47;5038658;28;20017;-84
2021/11/18 05:00:27;;;;;;;50.17;17.95;;;6.10;99.90;;;6.62;100.00;101634.53;5039352;28;20022;-83
2021/11/18 05:02:54;;;;;;;39.25;15.77;;;6.00;99.90;;;6.58;100.00;101638.22;5037887;28;20025;-84
2021/11/18 05:05:24;;;;;;;46.88;18.63;;;6.00;99.90;;;6.51;100.00;101635.03;5037764;28;20026;-82
2021/11/18 05:07:50;;;;;;;57.25;17.67;;;5.90;99.90;;;6.54;100.00;101639.97;5038197;28;20033;-85
2021/11/18 05:10:19;;;;;;;51.20;19.02;;;6.00;99.90;;;6.55;100.00;101634.09;5040489;28;20030;-82
2021/11/18 05:12:46;;;;;;;54.22;19.13;;;6.00;99.90;;;6.64;100.00;101639.78;5058555;28;20526;-85
2021/11/18 05:15:21;;;;;;;68.80;21.05;;;6.00;99.90;;;6.65;100.00;101631.13;5039613;28;20374;-82
2021/11/18 05:17:49;;;;;;;50.50;18.05;;;6.00;99.90;;;6.69;100.00;101625.78;5054381;28;20087;-83
2021/11/18 05:20:20;;;;;;;49.78;18.77;;;6.10;99.90;;;6.73;100.00;101624.88;5039910;28;20089;-82
2021/11/18 05:22:47;;;;;;;47.88;19.77;;;6.10;99.90;;;6.75;100.00;101630.09;5038205;28;20040;-85
2021/11/18 05:25:17;;;;;;;58.53;18.63;;;6.10;99.90;;;6.76;100.00;101634.53;5038059;28;20065;-83
2021/11/18 05:27:43;;;;;;;50.28;20.08;;;6.10;99.90;;;6.82;100.00;101630.50;5037312;28;20033;-82
2021/11/18 05:30:13;;;;;;;56.80;20.05;;;6.20;99.90;;;6.95;100.00;101639.97;5039095;28;20033;-84
2021/11/18 05:32:40;;;;;;;56.63;19.33;;;6.20;99.90;;;6.99;100.00;101636.28;5037791;28;20096;-84
2021/11/18 05:35:07;;;;;;;54.45;20.40;;;6.30;99.90;;;6.97;100.00;101632.16;5042003;28;20092;-86
2021/11/18 05:37:35;;;;;;;55.10;20.67;;;6.40;99.90;;;7.01;100.00;101630.38;5041704;28;20030;-87
2021/11/18 05:40:04;;;;;;;58.33;20.42;;;6.40;99.90;;;7.05;100.00;101639.75;5042255;28;20025;-87
2021/11/18 05:42:31;;;;;;;58.75;19.08;;;6.40;99.90;;;7.03;100.00;101636.47;5058009;28;20025;-86
2021/11/18 05:44:58;;;;;;;57.72;20.25;;;6.50;99.90;;;7.12;100.00;101641.00;5044353;28;20077;-86
2021/11/18 05:47:25;;;;;;;61.28;21.77;;;6.50;99.90;;;7.13;100.00;101627.91;5057588;28;20036;-84
2021/11/18 05:49:51;;;;;;;53.55;19.67;;;6.50;99.90;;;7.18;100.00;101639.75;5041860;28;20031;-88
2021/11/18 05:52:17;;;;;;;53.50;18.10;;;6.60;99.90;;;7.22;100.00;101648.28;5048422;28;20030;-86
2021/11/18 05:54:44;;;;;;;48.90;19.17;;;6.60;99.90;;;7.27;100.00;101657.31;5045410;28;20069;-83
2021/11/18 05:57:11;;;;;;;55.30;20.27;;;6.60;99.90;;;7.31;100.00;101652.78;5041429;28;20025;-84
2021/11/18 05:59:37;;;;;;;54.75;18.80;;;6.60;99.90;;;7.30;100.00;101653.09;5040445;28;20513;-85
2021/11/18 06:02:04;;;;;;;51.10;18.58;;;6.60;99.90;;;7.30;100.00;101644.75;5040421;28;20676;-85
2021/11/18 06:04:31;;;;;;;49.50;19.00;;;6.60;99.90;;;7.25;100.00;101656.81;5043635;28;20059;-85
2021/11/18 06:06:57;;;;;;;50.58;18.75;;;6.70;99.90;;;7.34;100.00;101659.66;5062507;28;20512;-86
2021/11/18 06:09:29;;;;;;;55.63;18.58;;;6.70;99.90;;;7.37;100.00;101672.94;5042958;28;20037;-85
2021/11/18 06:11:57;;;;;;;51.47;18.83;;;6.70;99.90;;;7.31;100.00;101674.19;5043472;28;20029;-86
2021/11/18 06:14:23;;;;;;;48.10;19.08;;;6.70;99.90;;;7.29;100.00;101668.94;5058924;28;20034;-84
2021/11/18 06:16:51;;;;;;;55.85;18.65;;;6.70;99.90;;;7.24;100.00;101666.28;5041353;28;20056;-83
2021/11/18 06:19:17;;;;;;;46.25;18.90;;;6.70;99.90;;;7.18;100.00;101667.53;5041850;28;20025;-83
2021/11/18 06:21:53;;;;;;;52.53;20.30;;;6.70;99.90;;;7.20;100.00;101673.59;5042859;28;20060;-82
2021/11/18 06:24:23;;;;;;;53.83;18.90;;;6.60;99.90;;;7.16;100.00;101680.88;5040131;28;20088;-85
2021/11/18 06:26:54;;;;;;;57.53;18.45;;;6.60;99.90;;;7.23;100.00;101664.63;5036055;28;20041;-85
2021/11/18 06:29:22;;;;;;;55.85;19.73;;;6.60;99.90;;;7.23;100.00;101670.19;5035076;28;20036;-85
2021/11/18 06:31:54;;;;;;;64.32;20.63;;;6.70;99.90;;;7.21;100.00;101674.41;5035377;28;20041;-82
2021/11/18 06:34:21;;;;;;;52.25;19.52;;;6.70;99.90;;;7.34;100.00;101679.13;5039779;28;20025;-85
2021/11/18 06:36:47;;;;;;;49.97;18.67;;;6.70;99.90;;;7.29;100.00;101665.31;5041654;28;20025;-83
2021/11/18 06:39:15;;;;;;;47.58;19.45;;;6.70;99.90;;;7.26;100.00;101668.72;5040597;28;20071;-81
2021/11/18 06:41:42;;;;;;;45.00;20.15;;;6.70;99.90;;;7.36;100.00;101683.22;5040683;28;20037;-82
2021/11/18 06:44:12;;;;;;;53.20;18.92;;;6.70;99.90;;;7.40;100.00;101681.47;5040605;28;20590;-83
2021/11/18 06:46:39;;;;;;;48.38;19.30;;;6.70;99.90;;;7.37;100.00;101687.66;5041064;28;20064;-84
2021/11/18 06:49:08;;;;;;;60.17;20.42;;;6.70;99.90;;;7.40;100.00;101683.44;5042277;28;20175;-84
2021/11/18 06:51:40;;;;;;;55.78;19.45;;;6.70;99.90;;;7.47;100.00;101686.63;5041482;28;20049;-83
2021/11/18 06:54:11;;;;;;;45.97;19.17;;;6.80;99.90;;;7.48;100.00;101698.56;5039308;28;20021;-85
2021/11/18 06:56:39;;;;;;;51.83;19.83;;;6.80;99.90;;;7.54;100.00;101694.53;5038172;28;20569;-82
2021/11/18 06:59:06;;;;;;;50.03;20.80;;;6.80;99.90;;;7.48;100.00;101684.66;5035510;28;20033;-84
2021/11/18 07:01:34;;;;;;;60.83;19.67;;;6.80;99.90;;;7.47;100.00;101694.13;5035942;28;20120;-83
2021/11/18 07:04:00;;;;;;;53.67;21.15;;;6.80;99.90;;;7.53;100.00;101709.56;5038431;28;20032;-82
2021/11/18 07:06:27;;;;;;;61.15;20.83;;;6.90;99.90;;;7.54;100.00;101711.22;5036332;28;20029;-84
2021/11/18 07:08:54;;;;;;;61.17;20.85;;;6.90;99.90;;;7.55;100.00;101710.88;5036825;28;20104;-86
2021/11/18 07:11:25;;;;;;;56.35;21.58;;;6.90;99.90;;;7.56;100.00;101720.06;5035855;28;20032;-82
2021/11/18 07:13:55;;;;;;;51.05;22.02;;;6.90;99.90;;;7.60;100.00;101718.31;5061144;28;20025;-85
2021/11/18 07:16:24;;;;;;;53.10;21.52;;;6.90;99.90;;;7.62;100.00;101719.63;5046518;28;20029;-81
2021/11/18 07:18:52;;;;;;;49.63;20.65;;;6.90;99.90;;;7.64;100.00;101716.53;5038537;28;20079;-83
2021/11/18 07:21:22;;;;;;;57.40;23.05;;;7.00;99.90;;;7.71;100.00;101725.25;5056095;28;20040;-82
2021/11/18 07:23:52;;;;;;;56.58;22.42;;;7.00;99.90;;;7.72;100.00;101718.56;5039149;28;20501;-83
2021/11/18 07:26:19;;;;;;;52.30;21.02;;;7.00;99.90;;;7.72;100.00;101715.78;5040358;28;20037;-81
2021/11/18 07:28:47;;;;;;;54.97;21.25;;;7.10;99.90;;;7.78;100.00;101715.38;5039160;28;20033;-81
2021/11/18 07:31:14;;;;;;;55.83;21.65;;;7.10;99.90;;;7.77;100.00;101715.69;5040036;28;20091;-84
2021/11/18 07:33:42;;;;;;;60.38;22.90;;;7.10;99.90;;;7.80;100.00;101726.19;5056088;28;20089;-82
2021/11/18 07:36:08;;;;;;;57.30;21.90;;;7.10;99.90;;;7.91;100.00;101728.41;5040405;28;20101;-84
2021/11/18 07:38:35;;;;;;;56.30;20.50;;;7.20;99.90;;;7.88;100.00;101723.47;5045020;28;20041;-82
2021/11/18 07:41:05;;;;;;;56.40;20.85;;;7.20;99.90;;;7.92;100.00;101727.28;5044470;28;20033;-81
2021/11/18 07:43:40;;;;;;;52.05;21.88;;;7.20;99.90;;;7.95;100.00;101718.31;5041393;28;20068;-81
2021/11/18 07:46:12;;;;;;;60.75;25.45;;;7.30;99.90;;;7.89;100.00;101714.00;5038881;28;20022;-84
2021/11/18 07:48:46;;;;;;;51.50;21.38;;;7.30;99.90;;;7.96;100.00;101708.81;5039396;28;20444;-86
2021/11/18 07:51:17;;;;;;;56.00;21.08;;;7.30;99.90;;;7.90;100.00;101715.63;5038537;28;20029;-83
2021/11/18 07:53:49;;;;;;;53.80;20.73;;;7.30;99.90;;;8.01;100.00;101730.13;5049919;28;20037;-78
2021/11/18 07:56:19;;;;;;;55.35;22.27;;;7.30;99.90;;;7.94;100.00;101729.72;5048432;28;20037;-86
2021/11/18 07:58:45;;;;;;;50.03;20.67;;;7.30;99.90;;;7.96;100.00;101730.25;5040359;28;20048;-80
2021/11/18 08:01:14;;;;;;;46.55;20.77;;;7.30;99.90;;;8.01;100.00;101723.72;5044256;28;20025;-83
2021/11/18 08:03:40;;;;;;;51.55;20.50;;;7.30;99.90;;;8.08;100.00;101716.59;5052641;28;20037;-85
2021/11/18 08:06:16;;;;;;;62.42;23.27;;;7.40;99.90;;;8.03;100.00;101718.69;5041218;28;20029;-84
2021/11/18 08:08:47;;;;;;;53.53;20.38;;;7.40;99.90;;;8.10;100.00;101721.84;5040389;28;20026;-84
2021/11/18 08:11:21;;;;;;;50.70;19.75;;;7.50;99.90;;;8.25;100.00;101730.63;5057741;28;20067;-84
2021/11/18 08:13:49;;;;;;;50.25;19.65;;;7.50;99.90;;;8.23;100.00;101723.72;5039946;28;20029;-85
2021/11/18 08:16:16;;;;;;;49.67;20.00;;;7.60;99.90;;;8.30;100.00;101736.13;5056939;28;20037;-83
2021/11/18 08:18:42;;;;;;;52.70;20.10;;;7.60;99.90;;;8.32;100.00;101738.56;5055164;28;20037;-83
2021/11/18 08:21:09;;;;;;;57.67;19.85;;;7.70;99.90;;;8.38;100.00;101742.91;5040274;28;20057;-82
2021/11/18 08:23:35;;;;;;;49.90;19.00;;;7.70;99.90;;;8.51;100.00;101744.75;5039273;28;20049;-83
2021/11/18 08:26:07;;;;;;;44.75;18.35;;;7.80;99.90;;;8.64;100.00;101756.94;5041709;28;20037;-83
2021/11/18 08:28:33;;;;;;;53.05;18.38;;;7.90;99.90;;;8.74;100.00;101763.09;5039251;28;20095;-85
2021/11/18 08:31:01;;;;;;;46.55;17.35;;;8.00;99.90;;;8.79;100.00;101768.53;5055630;28;20481;-84
2021/11/18 08:33:29;;;;;;;45.78;15.98;;;8.00;99.90;;;8.92;100.00;101764.03;5039128;28;20033;-84
2021/11/18 08:35:56;;;;;;;41.80;16.23;;;8.10;99.90;;;9.02;100.00;101772.91;5040752;28;20036;-83
2021/11/18 08:38:23;;;;;;;43.92;15.65;;;8.20;99.90;;;9.10;100.00;101776.06;5043560;28;20029;-85
2021/11/18 08:41:06;;;;;;;38.50;14.93;;;8.30;99.90;;;9.04;100.00;101785.69;5043728;28;20324;-82
2021/11/18 08:43:39;;;;;;;40.45;15.18;;;8.30;99.90;;;9.02;100.00;101780.47;5055968;28;20116;-85
2021/11/18 08:46:09;;;;;;;40.53;14.80;;;8.30;99.90;;;8.91;100.00;101779.09;5040127;28;20033;-81
2021/11/18 08:48:37;;;;;;;36.50;15.60;;;8.20;99.90;;;8.90;100.00;101778.25;5037522;28;20033;-83
2021/11/18 08:51:05;;;;;;;39.03;14.23;;;8.20;99.90;;;8.85;100.00;101772.84;5037704;28;20022;-81
2021/11/18 08:53:39;;;;;;;31.17;13.70;;;8.10;99.90;;;8.88;100.00;101769.41;5036901;28;20521;-84
2021/11/18 08:56:07;;;;;;;33.63;12.52;;;8.10;99.90;;;8.89;100.00;101773.81;5035325;28;20057;-83
2021/11/18 08:58:38;;;;;;;39.47;14.38;;;8.10;99.90;;;8.99;100.00;101767.16;5036180;28;20030;-89
2021/11/18 09:01:18;;;;;;;32.70;12.85;;;8.20;99.90;;;9.17;100.00;101770.84;5038650;28;20032;-86
2021/11/18 09:03:45;;;;;;;39.33;12.35;;;8.30;99.90;;;9.26;100.00;101761.38;5036566;28;20515;-85
2021/11/18 09:06:19;;;;;;;39.00;13.68;;;8.50;99.90;;;9.28;100.00;101761.06;5035972;28;20033;-85
2021/11/18 09:08:45;;;;;;;40.00;13.05;;;8.60;99.90;;;9.51;100.00;101754.22;5039976;28;20033;-84
2021/11/18 09:11:15;;;;;;;35.50;12.82;;;8.70;99.90;;;9.77;100.00;101752.31;5039712;28;20037;-87
2021/11/18 09:13:44;;;;;;;39.28;13.65;;;8.90;99.90;;;9.89;100.00;101757.25;5040261;28;20037;-86
2021/11/18 09:16:12;;;;;;;33.10;12.95;;;9.10;99.90;;;10.10;100.00;101763.84;5057750;28;20084;-84
2021/11/18 09:18:43;;;;;;;36.05;12.52;;;9.30;99.90;;;10.39;100.00;101774.38;5043744;28;20034;-83
2021/11/18 09:21:15;;;;;;;33.20;11.73;;;9.50;99.90;;;10.40;100.00;101770.44;5042572;28;20102;-85
2021/11/18 09:23:55;;;;;;;29.38;12.77;;;9.50;99.90;;;10.35;100.00;101773.38;5042295;28;20048;-84
2021/11/18 09:26:24;;;;;;;28.17;11.52;;;9.60;99.90;;;10.22;100.00;101766.81;5043059;28;20043;-85
2021/11/18 09:28:51;;;;;;;30.95;11.35;;;9.50;99.90;;;10.31;100.00;101775.19;5044908;28;20052;-83
2021/11/18 09:31:21;;;;;;;30.80;11.75;;;9.50;99.90;;;10.16;100.00;101770.09;5042682;28;20056;-85
2021/11/18 09:33:50;;;;;;;39.42;12.18;;;9.40;99.90;;;10.02;100.00;101776.63;5058205;28;20421;-85
2021/11/18 09:36:20;;;;;;;35.38;11.73;;;9.30;99.90;;;9.91;100.00;101761.38;5042610;28;20038;-86
2021/11/18 09:38:51;;;;;;;34.63;11.93;;;9.20;99.90;;;9.90;100.00;101758.88;5057491;28;20037;-82
2021/11/18 09:41:38;;;;;;;39.15;12.25;;;9.10;99.90;;;9.83;100.00;101764.13;5042173;28;20551;-86
2021/11/18 09:44:31;;;;;;;37.05;11.35;;;9.10;99.90;;;9.79;100.00;101766.75;5043061;28;20025;-84
2021/11/18 09:47:16;;;;;;;30.90;10.93;;;9.10;99.90;;;9.94;100.00;101777.47;5041926;28;20052;-83
2021/11/18 09:50:09;;;;;;;35.58;12.70;;;9.10;99.90;;;10.01;100.00;101774.19;5041486;28;20025;-85
2021/11/18 09:53:25;;;;;;;39.97;12.98;;;9.20;99.90;;;10.03;100.00;101775.50;5043027;28;20028;-85
2021/11/18 09:56:33;;;;;;;39.95;11.80;;;9.20;99.90;;;10.10;100.00;101766.63;5041434;28;20034;-83
2021/11/18 09:59:40;;;;;;;36.20;12.57;;;9.30;99.90;;;10.10;100.00;101771.38;5043263;28;20030;-85
2021/11/18 10:02:36;;;;;;;34.70;11.95;;;9.40;99.90;;;10.56;100.00;101785.53;5058858;28;20085;-85
2021/11/18 10:05:17;;;;;;;30.67;10.77;;;9.60;99.90;;;10.61;100.00;101767.75;5041422;28;20022;-84
2021/11/18 10:07:55;;;;;;;31.42;11.48;;;9.80;99.90;;;10.52;100.00;101757.44;5041492;28;20025;-85
2021/11/18 10:10:43;;;;;;;31.40;11.38;;;9.80;99.90;;;10.61;100.00;101764.97;5058382;28;20025;-85
2021/11/18 10:14:27;;;;;;;26.15;10.65;;;9.80;99.90;;;10.75;100.00;101771.19;5060742;28;20033;-87
2021/11/18 10:17:39;;;;;;;31.33;10.23;;;9.90;99.90;;;10.64;100.00;101779.09;5060783;28;20404;-85
2021/11/18 10:20:23;;;;;;;33.50;11.30;;;9.90;99.90;;;10.69;100.00;101772.53;5061696;28;20048;-86
2021/11/18 10:23:04;;;;;;;36.08;11.73;;;9.90;99.90;;;10.66;100.00;101776.00;5062099;28;20477;-85